首页
METAR-TAF:

METAR-TAF

机场 :

萨尔瓦多奥斯卡·阿努尔福·罗梅罗-伊-加尔达梅斯主教国际机场

萨尔瓦多, 萨尔瓦多

纬度: 13-26N, 经度: 089-03W, 海拔: 25米

当前天气观测

该预报发布于55分钟前的08:50 UTC
风速4节,风向东北,在东转东北之间变化
温度 24°C
湿度 94%
气压 1013 hPa
能见度10公里或以上
少量云层高于2000英尺
少量云层高于3300英尺, 积雨云.
散云层高于5300英尺
小雨

METAR: MSLP 150850Z 04004KT 010V070 9999 -RA FEW020 FEW033CB SCT053 24/23 Q1013 A2992 NOSIG RMK CB SE S

时间: 03:45 (09:45 UTC)

预报

该预报发布于6小时和20分钟前的03:25 UTC
预报有效从15日的 06点(UTC)到 16日的 06点(UTC)
风速4节,风向东转东北
能见度10公里或以上
散云层高于2300英尺
少量云层高于3000英尺, 积雨云.
多云层高于5500英尺
短暂存在
从 15日的 08点(UTC)到 15日的 12点(UTC)
能見度: 8000
雷暴, 雨
从 15日的 1200点(UTC)
风速5节,风向
能见度10公里或以上
散云层高于6500英尺
从 15日的 1800点(UTC)
风速8节,风向西南
能見度: 8000
散云层高于2700英尺
少量云层高于3000英尺, 积雨云.
雷暴, 雨
从 16日的 0000点(UTC)
风速2节,风向多变
能见度10公里或以上
少量云层高于2700英尺
少量云层高于3700英尺, 积雨云.
散云层高于6000英尺

TAF: MSLP 150325Z 1506/1606 07004KT 9999 SCT023 FEW030CB BKN055 TX32/1518Z TN24/1511Z TEMPO 1508/1512 8000 TSRA FM151200 08005KT 9999 FFEW023 SCT065 FM151800 22008KT 8000 TSRA SCT027 FEW030CB FM160000 VRB02KT 9999 FEW027 FEW037CB SCT060

超过4000个机场的气象观测和天气预报(METAR&TAF报告)。

可查询的气象台以黄色和红色小点在地图上表示。

将鼠标移到小点上方,可查看气象台名称。

然后点击查看天气观测和预报。

如需切换地图:点击带黑十字的绿色按钮放大地图;点击带横线的绿色按钮缩小地图;或者点击绿色箭头查看邻近地区的地图。


METAR-TAF: